createdAt,value
2019-01-15T00:01:56.928Z,101394.33
2019-01-15T00:04:27.158Z,101386.97
2019-01-15T00:06:57.533Z,101387.62
2019-01-15T00:09:27.849Z,101383.80
2019-01-15T00:11:58.132Z,101377.54
2019-01-15T00:14:28.474Z,101386.45
2019-01-15T00:16:58.733Z,101378.70
2019-01-15T00:19:28.946Z,101376.80
2019-01-15T00:21:59.381Z,101381.38
2019-01-15T00:24:29.647Z,101374.86
2019-01-15T00:26:59.970Z,101370.98
2019-01-15T00:29:30.602Z,101372.77
2019-01-15T00:32:00.858Z,101374.83
2019-01-15T00:34:31.156Z,101371.25
2019-01-15T00:37:01.443Z,101375.54
2019-01-15T00:39:31.994Z,101372.63
2019-01-15T00:42:02.286Z,101372.59
2019-01-15T00:44:32.636Z,101382.45
2019-01-15T00:47:03.018Z,101386.81
2019-01-15T00:49:33.274Z,101388.78
2019-01-15T00:52:03.868Z,101387.91
2019-01-15T00:54:34.483Z,101394.82
2019-01-15T00:57:08.690Z,101402.99
2019-01-15T00:59:39.019Z,101403.83
2019-01-15T01:02:09.323Z,101402.31
2019-01-15T01:04:39.630Z,101399.86
2019-01-15T01:07:09.887Z,101399.21
2019-01-15T01:09:40.137Z,101394.69
2019-01-15T01:12:10.448Z,101394.65
2019-01-15T01:14:41.071Z,101394.05
2019-01-15T01:17:11.351Z,101396.02
2019-01-15T01:19:41.722Z,101395.27
2019-01-15T01:22:12.268Z,101395.63
2019-01-15T01:24:42.614Z,101395.05
2019-01-15T01:27:13.212Z,101391.20
2019-01-15T01:29:43.485Z,101387.78
2019-01-15T01:32:13.927Z,101384.06
2019-01-15T01:34:44.321Z,101383.09
2019-01-15T01:37:14.581Z,101374.80
2019-01-15T01:39:44.876Z,101367.62
2019-01-15T01:42:15.341Z,101374.53
2019-01-15T01:44:45.885Z,101364.36
2019-01-15T01:47:16.190Z,101367.78
2019-01-15T01:49:46.499Z,101362.91
2019-01-15T01:52:16.786Z,101359.16
2019-01-15T01:54:47.171Z,101365.69
2019-01-15T01:57:17.449Z,101363.78
2019-01-15T01:59:47.840Z,101356.80
2019-01-15T02:02:18.115Z,101351.95
2019-01-15T02:04:48.458Z,101354.09
2019-01-15T02:07:18.722Z,101354.77
2019-01-15T02:09:49.322Z,101357.89
2019-01-15T02:12:19.602Z,101354.47
2019-01-15T02:14:49.873Z,101351.05
2019-01-15T02:17:20.229Z,101353.57
2019-01-15T02:19:50.516Z,101357.86
2019-01-15T02:22:20.796Z,101357.09
2019-01-15T02:24:51.109Z,101353.55
2019-01-15T02:27:21.739Z,101350.09
2019-01-15T02:29:52.672Z,101355.87
2019-01-15T02:32:22.978Z,101354.89
2019-01-15T02:34:53.238Z,101347.89
2019-01-15T02:37:23.591Z,101348.02
2019-01-15T02:39:54.055Z,101350.12
2019-01-15T02:42:24.310Z,101344.76
2019-01-15T02:44:54.848Z,101336.78
2019-01-15T02:47:25.226Z,101342.27
2019-01-15T02:49:55.623Z,101344.20
2019-01-15T02:52:25.888Z,101344.05
2019-01-15T02:54:56.550Z,101339.72
2019-01-15T02:57:26.852Z,101336.15
2019-01-15T02:59:57.114Z,101330.67
2019-01-15T03:02:27.443Z,101340.14
2019-01-15T03:04:57.733Z,101344.92
2019-01-15T03:07:28.019Z,101339.45
2019-01-15T03:09:59.395Z,101341.82
2019-01-15T03:12:30.255Z,101348.41
2019-01-15T03:15:00.546Z,101341.50
2019-01-15T03:17:31.051Z,101349.96
2019-01-15T03:20:01.319Z,101349.13
2019-01-15T03:22:31.612Z,101357.06
2019-01-15T03:25:01.886Z,101362.39
2019-01-15T03:27:32.219Z,101372.41
2019-01-15T03:30:02.929Z,101370.15
2019-01-15T03:32:33.737Z,101369.73
2019-01-15T03:35:04.074Z,101364.30
2019-01-15T03:37:34.342Z,101350.58
2019-01-15T03:40:06.263Z,101337.20
2019-01-15T03:42:36.542Z,101331.63
2019-01-15T03:45:07.312Z,101334.11
2019-01-15T03:47:37.788Z,101327.81
2019-01-15T03:50:08.365Z,101312.47
2019-01-15T03:52:38.729Z,101312.38
2019-01-15T03:55:09.695Z,101310.70
2019-01-15T03:57:39.920Z,101312.11
2019-01-15T04:00:22.616Z,101306.08
2019-01-15T04:02:53.029Z,101304.63
2019-01-15T04:05:23.314Z,101311.98
2019-01-15T04:08:00.873Z,101313.30
2019-01-15T04:10:31.133Z,101303.30
2019-01-15T04:13:01.384Z,101319.89
2019-01-15T04:15:31.692Z,101300.29
2019-01-15T04:18:02.012Z,101300.08
2019-01-15T04:20:33.480Z,101292.38
2019-01-15T04:23:04.905Z,101292.47
2019-01-15T04:25:35.252Z,101298.00
2019-01-15T04:28:05.553Z,101288.77
2019-01-15T04:30:35.836Z,101291.55
2019-01-15T04:33:06.198Z,101292.25
2019-01-15T04:35:36.437Z,101277.33
2019-01-15T04:38:06.726Z,101275.30
2019-01-15T04:40:37.059Z,101275.59
2019-01-15T04:43:07.310Z,101268.03
2019-01-15T04:45:37.576Z,101257.02
2019-01-15T04:48:07.899Z,101258.12
2019-01-15T04:50:38.298Z,101257.40
2019-01-15T04:53:08.578Z,101254.27
2019-01-15T04:55:38.927Z,101250.69
2019-01-15T04:58:09.129Z,101242.78
2019-01-15T05:00:39.401Z,101243.53
2019-01-15T05:03:12.902Z,101240.44
2019-01-15T05:05:43.372Z,101240.59
2019-01-15T05:08:13.651Z,101239.59
2019-01-15T05:10:43.969Z,101236.86
2019-01-15T05:13:14.355Z,101233.36
2019-01-15T05:15:44.627Z,101229.30
2019-01-15T05:18:15.029Z,101232.22
2019-01-15T05:20:45.303Z,101222.10
2019-01-15T05:23:15.850Z,101215.03
2019-01-15T05:25:46.229Z,101217.42
2019-01-15T05:28:17.220Z,101213.20
2019-01-15T05:30:47.490Z,101214.41
2019-01-15T05:33:18.223Z,101198.78
2019-01-15T05:35:48.494Z,101197.62
2019-01-15T05:38:18.865Z,101197.08
2019-01-15T05:40:49.304Z,101197.84
2019-01-15T05:43:19.706Z,101189.47
2019-01-15T05:45:51.664Z,101195.45
2019-01-15T05:48:26.633Z,101193.31
2019-01-15T05:51:14.568Z,101188.26
2019-01-15T05:53:44.915Z,101189.41
2019-01-15T05:56:15.198Z,101192.48
2019-01-15T05:58:45.479Z,101185.62
2019-01-15T06:01:15.765Z,101183.17
2019-01-15T06:03:45.984Z,101189.76
2019-01-15T06:06:16.292Z,101193.88
2019-01-15T06:08:46.543Z,101190.11
2019-01-15T06:11:16.783Z,101188.57
2019-01-15T06:13:47.136Z,101183.75
2019-01-15T06:16:17.725Z,101173.52
2019-01-15T06:18:48.003Z,101173.46
2019-01-15T06:21:18.388Z,101162.70
2019-01-15T06:23:48.630Z,101162.20
2019-01-15T06:26:18.951Z,101169.78
2019-01-15T06:28:49.437Z,101162.18
2019-01-15T06:31:21.093Z,101165.77
2019-01-15T06:33:51.753Z,101169.52
2019-01-15T06:36:22.063Z,101169.17
2019-01-15T06:38:52.367Z,101168.18
2019-01-15T06:41:22.628Z,101164.58
2019-01-15T06:43:52.961Z,101163.12
2019-01-15T06:46:23.191Z,101158.69
2019-01-15T06:48:53.538Z,101166.00
2019-01-15T06:51:24.030Z,101166.60
2019-01-15T06:53:54.343Z,101171.59
2019-01-15T06:56:24.693Z,101170.84
2019-01-15T06:58:55.015Z,101171.14
2019-01-15T07:01:25.306Z,101171.49
2019-01-15T07:03:55.714Z,101168.28
2019-01-15T07:06:26.020Z,101170.45
2019-01-15T07:08:56.473Z,101170.09
2019-01-15T07:11:26.760Z,101167.15
2019-01-15T07:13:57.253Z,101166.17
2019-01-15T07:16:27.841Z,101161.51
2019-01-15T07:18:58.321Z,101163.92
2019-01-15T07:21:29.028Z,101165.28
2019-01-15T07:23:59.320Z,101168.30
2019-01-15T07:26:29.495Z,101165.03
2019-01-15T07:28:59.770Z,101167.92
2019-01-15T07:31:30.084Z,101163.73
2019-01-15T07:34:00.334Z,101169.91
2019-01-15T07:36:30.618Z,101168.48
2019-01-15T07:39:00.979Z,101172.69
2019-01-15T07:41:31.340Z,101178.81
2019-01-15T07:44:04.453Z,101167.29
2019-01-15T07:46:33.722Z,101172.03
2019-01-15T07:49:04.142Z,101170.11
2019-01-15T07:51:34.465Z,101168.55
2019-01-15T07:54:05.043Z,101168.84
2019-01-15T07:56:35.391Z,101164.41
2019-01-15T07:59:05.739Z,101172.27
2019-01-15T08:01:36.044Z,101172.45
2019-01-15T08:04:06.324Z,101173.69
2019-01-15T08:06:36.615Z,101171.66
2019-01-15T08:09:11.842Z,101172.94
2019-01-15T08:11:43.018Z,101176.86
2019-01-15T08:14:13.339Z,101171.32
2019-01-15T08:16:43.669Z,101180.25
2019-01-15T08:19:14.387Z,101180.70
2019-01-15T08:21:44.669Z,101175.55
2019-01-15T08:24:14.996Z,101175.63
2019-01-15T08:26:45.313Z,101163.58
2019-01-15T08:29:15.625Z,101166.63
2019-01-15T08:31:45.941Z,101165.86
2019-01-15T08:34:16.201Z,101167.59
2019-01-15T08:36:46.530Z,101164.70
2019-01-15T08:39:17.062Z,101153.80
2019-01-15T08:41:47.670Z,101160.62
2019-01-15T08:44:19.350Z,101158.92
2019-01-15T08:46:49.928Z,101157.58
2019-01-15T08:49:20.494Z,101155.51
2019-01-15T08:51:50.905Z,101145.22
2019-01-15T08:54:21.597Z,101140.28
2019-01-15T08:56:51.981Z,101141.52
2019-01-15T08:59:22.736Z,101145.92
2019-01-15T09:01:53.169Z,101142.36
2019-01-15T09:04:23.517Z,101143.56
2019-01-15T09:06:53.833Z,101146.63
2019-01-15T09:09:24.312Z,101146.66
2019-01-15T09:11:54.549Z,101145.41
2019-01-15T09:14:26.857Z,101144.88
2019-01-15T09:16:57.051Z,101150.45
2019-01-15T09:19:27.473Z,101141.21
2019-01-15T09:21:57.741Z,101134.79
2019-01-15T09:24:28.091Z,101129.61
2019-01-15T09:26:58.425Z,101135.57
2019-01-15T09:29:28.734Z,101123.95
2019-01-15T09:31:59.050Z,101130.29
2019-01-15T09:34:29.551Z,101127.53
2019-01-15T09:36:59.866Z,101125.59
2019-01-15T09:39:30.165Z,101121.89
2019-01-15T09:42:00.955Z,101123.97
2019-01-15T09:44:34.189Z,101124.81
2019-01-15T09:47:03.355Z,101116.13
2019-01-15T09:49:34.028Z,101117.05
2019-01-15T09:52:04.450Z,101118.52
2019-01-15T09:54:34.747Z,101111.58
2019-01-15T09:57:05.307Z,101105.16
2019-01-15T09:59:35.701Z,101109.37
2019-01-15T10:02:06.314Z,101104.65
2019-01-15T10:04:36.607Z,101091.52
2019-01-15T10:07:06.942Z,101092.18
2019-01-15T10:09:37.325Z,101095.62
2019-01-15T10:12:07.561Z,101087.84
2019-01-15T10:14:41.475Z,101087.34
2019-01-15T10:17:09.993Z,101084.45
2019-01-15T10:19:40.264Z,101074.75
2019-01-15T10:22:11.053Z,101080.72
2019-01-15T10:24:42.003Z,101069.06
2019-01-15T10:27:13.277Z,101068.13
2019-01-15T10:29:44.290Z,101070.72
2019-01-15T10:32:50.038Z,101064.09
2019-01-15T10:36:03.951Z,101059.38
2019-01-15T10:38:35.127Z,101066.87
2019-01-15T10:41:05.636Z,101062.02
2019-01-15T10:43:36.511Z,101054.55
2019-01-15T10:46:07.692Z,101050.16
2019-01-15T10:48:38.039Z,101049.04
2019-01-15T10:51:08.457Z,101047.39
2019-01-15T10:53:38.789Z,101047.25
2019-01-15T10:56:09.114Z,101035.73
2019-01-15T10:58:39.786Z,101039.82
2019-01-15T11:01:10.103Z,101032.36
2019-01-15T11:03:40.436Z,101025.54
2019-01-15T11:06:10.812Z,101023.59
2019-01-15T11:08:41.121Z,101022.46
2019-01-15T11:11:11.414Z,101017.61
2019-01-15T11:13:41.973Z,101015.32
2019-01-15T11:16:12.326Z,101014.84
2019-01-15T11:18:42.686Z,101003.67
2019-01-15T11:21:12.967Z,101010.78
2019-01-15T11:23:43.296Z,101010.33
2019-01-15T11:26:13.564Z,101010.66
2019-01-15T11:28:43.993Z,101010.98
2019-01-15T11:31:14.315Z,101005.95
2019-01-15T11:33:44.591Z,101003.36
2019-01-15T11:36:14.920Z,100995.89
2019-01-15T11:38:45.276Z,100983.91
2019-01-15T11:41:15.749Z,100997.67
2019-01-15T11:43:46.081Z,100991.83
2019-01-15T11:46:16.468Z,100985.53
2019-01-15T11:50:43.110Z,100981.62
2019-01-15T11:52:09.433Z,100977.24
2019-01-15T11:54:39.678Z,100970.42
2019-01-15T11:57:10.289Z,100960.88
2019-01-15T11:59:40.727Z,100956.31
2019-01-15T12:02:26.772Z,100956.47
2019-01-15T12:05:28.509Z,100950.83
2019-01-15T12:08:24.708Z,100946.77
2019-01-15T12:11:14.167Z,100938.31
2019-01-15T12:14:09.440Z,100935.41
2019-01-15T12:16:58.712Z,100943.66
2019-01-15T12:19:53.775Z,100927.12
2019-01-15T12:22:36.030Z,100942.88
2019-01-15T12:25:24.018Z,100938.16
2019-01-15T12:28:13.039Z,100937.02
2019-01-15T12:30:58.589Z,100930.52
2019-01-15T12:33:46.584Z,100933.61
2019-01-15T12:36:34.724Z,100926.65
2019-01-15T12:39:29.194Z,100923.23
2019-01-15T12:42:21.207Z,100923.55
2019-01-15T12:45:09.075Z,100919.98
2019-01-15T12:47:58.256Z,100922.73
2019-01-15T12:50:36.101Z,100915.44
2019-01-15T12:53:24.122Z,100914.78
2019-01-15T12:56:12.332Z,100918.84
2019-01-15T12:59:13.614Z,100915.59
2019-01-15T13:02:03.029Z,100909.27
2019-01-15T13:04:58.887Z,100915.44
2019-01-15T13:07:39.735Z,100913.48
2019-01-15T13:10:31.578Z,100921.44
2019-01-15T13:13:11.633Z,100919.48
2019-01-15T13:15:59.759Z,100920.12
2019-01-15T13:18:48.940Z,100920.16
2019-01-15T13:21:47.296Z,100924.03
2019-01-15T13:24:35.466Z,100922.72
2019-01-15T13:27:28.984Z,100918.48
2019-01-15T13:30:10.236Z,100911.19
2019-01-15T13:33:12.909Z,100918.19
2019-01-15T13:36:00.213Z,100918.49
2019-01-15T13:38:48.185Z,100918.34
2019-01-15T13:41:37.430Z,100912.97
2019-01-15T13:44:25.158Z,100909.41
2019-01-15T13:47:10.354Z,100906.50
2019-01-15T13:50:00.579Z,100896.11
2019-01-15T13:52:41.408Z,100900.33
2019-01-15T13:55:48.848Z,100886.38
2019-01-15T13:58:41.232Z,100882.61
2019-01-15T14:01:33.463Z,100877.59
2019-01-15T14:04:21.699Z,100881.30
2019-01-15T14:07:09.091Z,100884.39
2019-01-15T14:09:58.372Z,100884.08
2019-01-15T14:13:02.855Z,100895.92
2019-01-15T14:16:04.680Z,100880.83
2019-01-15T14:18:52.687Z,100883.09
2019-01-15T14:21:42.001Z,100883.76
2019-01-15T14:24:27.745Z,100881.15
2019-01-15T14:27:11.651Z,100879.70
2019-01-15T14:29:57.482Z,100887.15
2019-01-15T14:32:46.185Z,100892.35
2019-01-15T14:35:44.547Z,100888.13
2019-01-15T14:38:23.861Z,100887.30
2019-01-15T14:41:21.372Z,100883.73
2019-01-15T14:44:21.024Z,100881.13
2019-01-15T14:47:09.075Z,100876.90
2019-01-15T14:49:57.231Z,100877.23
2019-01-15T14:52:49.586Z,100878.39
2019-01-15T14:55:42.777Z,100877.23
2019-01-15T14:58:30.891Z,100865.56
2019-01-15T15:01:19.226Z,100866.53
2019-01-15T15:04:07.289Z,100861.98
2019-01-15T15:07:03.506Z,100864.56
2019-01-15T15:09:47.989Z,100866.69
2019-01-15T15:12:43.397Z,100867.64
2019-01-15T15:15:35.650Z,100867.83
2019-01-15T15:18:23.096Z,100873.17
2019-01-15T15:21:02.964Z,100871.73
2019-01-15T15:23:52.242Z,100864.56
2019-01-15T15:26:50.826Z,100864.09
2019-01-15T15:29:35.058Z,100867.28
2019-01-15T15:32:23.271Z,100869.44
2019-01-15T15:35:06.912Z,100869.58
2019-01-15T15:37:54.698Z,100878.19
2019-01-15T15:40:48.573Z,100878.36
2019-01-15T15:43:29.052Z,100880.30
2019-01-15T15:46:33.778Z,100879.14
2019-01-15T15:49:20.351Z,100883.20
2019-01-15T15:52:22.612Z,100877.52
2019-01-15T15:55:07.778Z,100880.13
2019-01-15T15:58:09.789Z,100878.31
2019-01-15T16:01:05.162Z,100873.45
2019-01-15T16:03:49.794Z,100871.19
2019-01-15T16:06:36.226Z,100872.00
2019-01-15T16:09:35.471Z,100877.31
2019-01-15T16:12:31.509Z,100867.75
2019-01-15T16:15:19.408Z,100865.83
2019-01-15T16:18:06.972Z,100869.73
2019-01-15T16:20:55.295Z,100860.73
2019-01-15T16:23:50.384Z,100864.52
2019-01-15T16:26:38.259Z,100874.42
2019-01-15T16:29:30.627Z,100873.10
2019-01-15T16:32:19.887Z,100871.13
2019-01-15T16:35:01.813Z,100870.52
2019-01-15T16:37:56.852Z,100859.91
2019-01-15T16:40:43.689Z,100866.61
2019-01-15T16:43:31.827Z,100873.09
2019-01-15T16:46:15.405Z,100873.58
2019-01-15T16:49:10.819Z,100872.77
2019-01-15T16:52:06.139Z,100870.01
2019-01-15T16:54:45.642Z,100863.83
2019-01-15T16:57:45.372Z,100869.98
2019-01-15T17:00:32.750Z,100869.66
2019-01-15T17:03:26.413Z,100869.67
2019-01-15T17:06:06.088Z,100867.88
2019-01-15T17:08:53.908Z,100867.06
2019-01-15T17:11:46.069Z,100872.57
2019-01-15T17:14:38.072Z,100868.38
2019-01-15T17:17:26.179Z,100868.38
2019-01-15T17:20:14.390Z,100867.87
2019-01-15T17:23:19.027Z,100871.77
2019-01-15T17:25:59.851Z,100864.16
2019-01-15T17:28:48.174Z,100870.92
2019-01-15T17:31:37.369Z,100867.20
2019-01-15T17:34:29.832Z,100870.11
2019-01-15T17:37:18.167Z,100869.62
2019-01-15T17:40:00.175Z,100870.00
2019-01-15T17:42:43.810Z,100875.00
2019-01-15T17:45:32.965Z,100872.57
2019-01-15T17:48:13.163Z,100875.65
2019-01-15T17:51:01.103Z,100874.20
2019-01-15T17:53:49.247Z,100878.73
2019-01-15T17:56:38.535Z,100877.09
2019-01-15T17:59:26.590Z,100875.95
2019-01-15T18:02:14.944Z,100879.24
2019-01-15T18:05:09.110Z,100883.61
2019-01-15T18:07:58.575Z,100881.84
2019-01-15T18:10:46.360Z,100879.89
2019-01-15T18:13:34.205Z,100885.89
2019-01-15T18:16:22.759Z,100888.63
2019-01-15T18:19:15.485Z,100887.33
2019-01-15T18:22:10.112Z,100879.05
2019-01-15T18:24:59.293Z,100882.62
2019-01-15T18:27:45.726Z,100877.91
2019-01-15T18:30:30.849Z,100881.17
2019-01-15T18:33:32.291Z,100883.44
2019-01-15T18:36:20.819Z,100883.90
2019-01-15T18:39:04.978Z,100887.69
2019-01-15T18:41:53.044Z,100883.77
2019-01-15T18:44:38.912Z,100885.38
2019-01-15T18:47:27.106Z,100885.08
2019-01-15T18:50:14.882Z,100885.23
2019-01-15T18:53:07.275Z,100889.30
2019-01-15T18:55:54.635Z,100890.57
2019-01-15T18:58:43.838Z,100891.88
2019-01-15T19:01:34.957Z,100889.62
2019-01-15T19:04:24.186Z,100890.87
2019-01-15T19:07:25.887Z,100887.19
2019-01-15T19:10:14.571Z,100888.45
2019-01-15T19:13:04.725Z,100880.19
2019-01-15T19:16:04.145Z,100876.77
2019-01-15T19:19:05.862Z,100883.91
2019-01-15T19:21:54.195Z,100887.17
2019-01-15T19:24:51.865Z,100887.92
2019-01-15T19:27:40.567Z,100885.02
2019-01-15T19:30:31.288Z,100886.34
2019-01-15T19:33:29.454Z,100888.63
2019-01-15T19:36:28.520Z,100887.63
2019-01-15T19:39:16.087Z,100886.67
2019-01-15T19:42:11.477Z,100888.94
2019-01-15T19:45:15.272Z,100884.72
2019-01-15T19:48:20.118Z,100886.31
2019-01-15T19:51:25.426Z,100886.18
2019-01-15T19:54:14.999Z,100889.93
2019-01-15T19:57:04.471Z,100893.66
2019-01-15T19:59:55.236Z,100891.35
2019-01-15T20:02:47.615Z,100893.33
2019-01-15T20:05:31.156Z,100887.78
2019-01-15T20:08:21.019Z,100896.08
2019-01-15T20:11:25.838Z,100882.80
2019-01-15T20:14:14.917Z,100885.03
2019-01-15T20:17:18.250Z,100887.80
2019-01-15T20:20:16.683Z,100891.37
2019-01-15T20:23:01.435Z,100887.63
2019-01-15T20:25:54.112Z,100889.92
2019-01-15T20:28:42.255Z,100886.84
2019-01-15T20:31:30.089Z,100891.05
2019-01-15T20:34:09.791Z,100888.95
2019-01-15T20:36:58.525Z,100895.44
2019-01-15T20:39:56.848Z,100893.81
2019-01-15T20:42:41.467Z,100893.32
2019-01-15T20:45:22.952Z,100895.59
2019-01-15T20:48:10.947Z,100894.92
2019-01-15T20:51:03.855Z,100895.89
2019-01-15T20:53:53.103Z,100903.72
2019-01-15T20:56:57.646Z,100905.32
2019-01-15T20:59:35.733Z,100902.41
2019-01-15T21:02:37.368Z,100912.95
2019-01-15T21:05:26.949Z,100910.99
2019-01-15T21:08:22.079Z,100915.08
2019-01-15T21:11:10.152Z,100924.49
2019-01-15T21:13:58.105Z,100918.02
2019-01-15T21:16:46.144Z,100917.84
2019-01-15T21:19:54.167Z,100921.41
2019-01-15T21:22:44.601Z,100922.52
2019-01-15T21:25:43.024Z,100925.45
2019-01-15T21:28:31.688Z,100920.23
2019-01-15T21:31:19.614Z,100924.59
2019-01-15T21:34:21.089Z,100927.20
2019-01-15T21:37:09.509Z,100924.44
2019-01-15T21:39:57.163Z,100933.24
2019-01-15T21:42:49.216Z,100926.23
2019-01-15T21:45:41.391Z,100929.02
2019-01-15T21:48:37.961Z,100930.77
2019-01-15T21:51:33.142Z,100923.64
2019-01-15T21:54:31.504Z,100927.21
2019-01-15T21:57:09.597Z,100913.44
2019-01-15T21:59:59.188Z,100918.06
2019-01-15T22:02:48.398Z,100922.36
2019-01-15T22:05:42.405Z,100919.45
2019-01-15T22:08:34.604Z,100915.86
2019-01-15T22:11:12.766Z,100920.25
2019-01-15T22:14:10.885Z,100923.00
2019-01-15T22:17:00.153Z,100923.66
2019-01-15T22:19:48.112Z,100930.97
2019-01-15T22:22:36.850Z,100932.77
2019-01-15T22:25:26.416Z,100939.92
2019-01-15T22:28:15.528Z,100934.23
2019-01-15T22:31:03.483Z,100941.20
2019-01-15T22:33:55.901Z,100939.59
2019-01-15T22:36:48.301Z,100936.70
2019-01-15T22:39:37.147Z,100935.20
2019-01-15T22:42:26.323Z,100929.83
2019-01-15T22:45:30.945Z,100928.20
2019-01-15T22:48:18.789Z,100923.99
2019-01-15T22:51:14.902Z,100919.78
2019-01-15T22:53:57.220Z,100924.52
2019-01-15T22:56:34.875Z,100925.65
2019-01-15T22:59:29.648Z,100925.64
2019-01-15T23:02:08.561Z,100929.03
2019-01-15T23:05:09.625Z,100928.86
2019-01-15T23:08:14.327Z,100934.72
2019-01-15T23:11:03.542Z,100932.92
2019-01-15T23:13:40.825Z,100930.70
2019-01-15T23:16:17.801Z,100935.08
2019-01-15T23:19:13.536Z,100930.16
2019-01-15T23:22:03.654Z,100939.97
2019-01-15T23:24:51.689Z,100928.22
2019-01-15T23:27:39.749Z,100928.39
2019-01-15T23:30:32.175Z,100926.14
2019-01-15T23:33:11.625Z,100921.73
2019-01-15T23:35:59.234Z,100922.66
2019-01-15T23:39:00.268Z,100926.75
2019-01-15T23:41:52.344Z,100923.55
2019-01-15T23:44:29.883Z,100925.33
2019-01-15T23:47:18.071Z,100922.23
2019-01-15T23:50:09.977Z,100918.16
2019-01-15T23:53:08.407Z,100916.05
2019-01-15T23:55:55.296Z,100915.41
2019-01-15T23:58:50.717Z,100916.22
